Hillier

*Note: All times are displayed in the local standard time of the station location.
**Rain - Equipment is designed to accurately record liquid precipitation; under conditions when precipitation is not in liquid form, the data displayed may not properly reflect rainfall values.

Date Max Temp
(°C)
Min Temp
(°C)
Avg Temp
(°C)
Rain (mm) Avg RH (%) Solar Rad (kJ/m2)
Wed, Apr 17, 2019 13.8 -1.6 6.8 0.0 67.9 15141.4
Tue, Apr 16, 2019 10.7 -1.1 4.5 0.0 68.6 13449.9
Mon, Apr 15, 2019 7.6 2.1 4.1 2.4 81.7 4366.9
Sun, Apr 14, 2019 4.3 -0.8 2.7 24.2 87.3 2525.7
Sat, Apr 13, 2019 14.5 2.5 9.4 0.0 65.9 14335.7
Fri, Apr 12, 2019 16.8 3.6 9.7 4.4 73.4 6394.0
Thu, Apr 11, 2019 4.8 -3.0 1.3 0.0 64.3 6616.7
DateTime Avg Temp (°C) Rain (mm) RH (%) Solar Rad (kJ/m2)
Thu, Apr 18, 2019 06:00 9.0 0.0 76.2 0.0
Thu, Apr 18, 2019 05:00 9.1 0.0 80.9 0.0
Thu, Apr 18, 2019 04:00 9.7 0.8 77.2 0.0
Thu, Apr 18, 2019 03:00 10.3 0.0 53.5 0.0
Thu, Apr 18, 2019 02:00 9.8 0.0 49.8 0.0
Thu, Apr 18, 2019 01:00 10.6 0.0 39.7 0.0
Thu, Apr 18, 2019 00:00 10.9 0.0 36.6 0.0
Wed, Apr 17, 2019 23:00 9.9 0.0 42.6 0.0
Wed, Apr 17, 2019 22:00 8.9 0.0 46.7 0.0
Wed, Apr 17, 2019 21:00 9.0 0.0 46.4 0.0
Wed, Apr 17, 2019 20:00 11.4 0.0 32.2 76.2
Wed, Apr 17, 2019 19:00 13.5 0.0 25.9 481.8
Wed, Apr 17, 2019 18:00 13.6 0.0 28.4 998.0
Wed, Apr 17, 2019 17:00 13.6 0.0 32.4 1345.9
Wed, Apr 17, 2019 16:00 13.1 0.0 37.4 1582.0
Wed, Apr 17, 2019 15:00 12.7 0.0 41.0 1624.8
Wed, Apr 17, 2019 14:00 11.7 0.0 53.9 1915.6
Wed, Apr 17, 2019 13:00 10.0 0.0 66.1 1894.5
Wed, Apr 17, 2019 12:00 9.1 0.0 70.9 1793.1
Wed, Apr 17, 2019 11:00 8.7 0.0 75.9 1516.1
Wed, Apr 17, 2019 10:00 5.3 0.0 95.0 1082.3
Wed, Apr 17, 2019 09:00 1.5 0.0 99.9 577.2
Wed, Apr 17, 2019 08:00 -0.8 0.0 99.9 231.3
Wed, Apr 17, 2019 07:00 -1.4 0.0 99.9 22.6
Wed, Apr 17, 2019 06:00 -1.1 0.0 99.9 0.0
Wed, Apr 17, 2019 05:00 0.4 0.0 99.9 0.0
Wed, Apr 17, 2019 04:00 0.4 0.0 99.9 0.0
Wed, Apr 17, 2019 03:00 -0.5 0.0 99.9 0.0
Wed, Apr 17, 2019 02:00 0.6 0.0 99.9 0.0
Wed, Apr 17, 2019 01:00 2.3 0.0 99.7 0.0
Wed, Apr 17, 2019 00:00 3.9 0.0 95.6 0.0
Tue, Apr 16, 2019 23:00 4.2 0.0 93.6 0.0
Tue, Apr 16, 2019 22:00 4.2 0.0 90.9 0.0
Tue, Apr 16, 2019 21:00 4.6 0.0 87.2 0.0
Tue, Apr 16, 2019 20:00 5.1 0.0 80.6 25.8
Tue, Apr 16, 2019 19:00 6.5 0.0 69.0 219.4
Tue, Apr 16, 2019 18:00 8.6 0.0 50.4 807.4
Tue, Apr 16, 2019 17:00 10.2 0.0 38.2 1341.6
Tue, Apr 16, 2019 16:00 9.0 0.0 47.6 1483.1
Tue, Apr 16, 2019 15:00 8.2 0.0 52.9 1269.8
Tue, Apr 16, 2019 14:00 8.3 0.0 53.8 1495.9
Tue, Apr 16, 2019 13:00 8.6 0.0 56.8 1985.3
Tue, Apr 16, 2019 12:00 8.5 0.0 52.8 1616.6
Tue, Apr 16, 2019 11:00 6.9 0.0 51.5 1292.5
Tue, Apr 16, 2019 10:00 5.7 0.0 55.3 923.1
Tue, Apr 16, 2019 09:00 4.3 0.0 61.1 655.5
Tue, Apr 16, 2019 08:00 2.1 0.0 71.7 306.7
Tue, Apr 16, 2019 07:00 -0.2 0.0 79.4 27.2


asterix Register now to access more data! asterix